createdAt,value
2017-11-08T00:00:10.210Z,25.87
2017-11-08T00:02:43.890Z,21.73
2017-11-08T00:05:17.397Z,19.67
2017-11-08T00:07:50.894Z,20.47
2017-11-08T00:10:24.399Z,24.77
2017-11-08T00:12:57.890Z,21.30
2017-11-08T00:15:31.425Z,22.93
2017-11-08T00:18:05.189Z,20.50
2017-11-08T00:20:38.842Z,24.67
2017-11-08T00:23:12.498Z,22.00
2017-11-08T00:25:45.999Z,22.37
2017-11-08T00:28:19.549Z,25.07
2017-11-08T00:30:53.082Z,21.23
2017-11-08T00:33:26.663Z,18.00
2017-11-08T00:36:00.163Z,27.10
2017-11-08T00:38:33.896Z,20.13
2017-11-08T00:41:08.413Z,23.50
2017-11-08T00:43:42.763Z,22.20
2017-11-08T00:46:16.442Z,23.23
2017-11-08T00:48:50.010Z,17.33
2017-11-08T00:51:23.597Z,22.17
2017-11-08T00:53:57.446Z,18.77
2017-11-08T00:56:31.038Z,23.63
2017-11-08T00:59:04.598Z,23.00
2017-11-08T01:01:38.353Z,22.53
2017-11-08T01:04:11.853Z,25.97
2017-11-08T01:06:45.843Z,23.27
2017-11-08T01:09:19.461Z,20.27
2017-11-08T01:11:52.962Z,21.50
2017-11-08T01:14:26.870Z,24.90
2017-11-08T01:17:00.675Z,15.93
2017-11-08T01:19:34.964Z,23.93
2017-11-08T01:22:08.797Z,22.53
2017-11-08T01:24:42.249Z,17.00
2017-11-08T01:27:16.713Z,19.70
2017-11-08T01:29:50.291Z,18.80
2017-11-08T01:32:23.814Z,20.90
2017-11-08T01:34:57.414Z,23.87
2017-11-08T01:37:36.726Z,21.03
2017-11-08T01:40:11.050Z,20.60
2017-11-08T01:42:44.670Z,24.57
2017-11-08T01:45:18.342Z,20.63
2017-11-08T01:47:52.077Z,23.37
2017-11-08T01:50:27.825Z,20.33
2017-11-08T01:53:01.948Z,22.10
2017-11-08T01:55:38.619Z,22.70
2017-11-08T01:58:12.190Z,26.47
2017-11-08T02:00:45.686Z,21.50
2017-11-08T02:03:19.309Z,21.10
2017-11-08T02:05:52.806Z,26.33
2017-11-08T02:08:26.401Z,27.90
2017-11-08T02:11:00.818Z,23.60
2017-11-08T02:13:34.434Z,30.20
2017-11-08T02:16:08.025Z,26.80
2017-11-08T02:18:42.189Z,22.20
2017-11-08T02:21:15.805Z,23.77
2017-11-08T02:23:49.459Z,23.27
2017-11-08T02:26:28.950Z,23.13
2017-11-08T02:29:02.690Z,25.23
2017-11-08T02:31:36.201Z,23.00
2017-11-08T02:34:09.766Z,31.03
2017-11-08T02:39:11.874Z,23.17
2017-11-08T02:41:45.673Z,24.37
2017-11-08T02:44:19.261Z,22.73
2017-11-08T02:46:58.682Z,23.60
2017-11-08T02:49:32.385Z,27.13
2017-11-08T02:52:06.019Z,26.33
2017-11-08T02:54:39.521Z,28.63
2017-11-08T02:57:13.241Z,26.67
2017-11-08T02:59:49.893Z,27.70
2017-11-08T03:02:24.418Z,26.13
2017-11-08T03:05:02.688Z,25.20
2017-11-08T03:07:36.538Z,24.57
2017-11-08T03:10:10.143Z,22.67
2017-11-08T03:12:43.741Z,24.67
2017-11-08T03:15:17.421Z,24.13
2017-11-08T03:17:51.019Z,22.43
2017-11-08T03:20:24.597Z,24.10
2017-11-08T03:22:59.166Z,23.07
2017-11-08T03:25:32.657Z,24.70
2017-11-08T03:28:06.369Z,29.10
2017-11-08T03:30:39.963Z,24.97
2017-11-08T03:33:13.584Z,23.33
2017-11-08T03:35:47.061Z,26.77
2017-11-08T03:38:20.614Z,31.70
2017-11-08T03:40:54.265Z,24.50
2017-11-08T03:43:27.970Z,24.67
2017-11-08T03:46:01.662Z,29.23
2017-11-08T03:48:35.882Z,26.70
2017-11-08T03:51:09.605Z,26.70
2017-11-08T03:53:44.013Z,28.43
2017-11-08T03:56:17.482Z,25.37
2017-11-08T03:58:51.546Z,31.17
2017-11-08T04:01:25.238Z,27.00
2017-11-08T04:03:58.898Z,23.57
2017-11-08T04:06:32.425Z,29.17
2017-11-08T04:09:06.922Z,31.47
2017-11-08T04:11:40.763Z,27.60
2017-11-08T04:14:14.440Z,27.20
2017-11-08T04:16:48.059Z,28.53
2017-11-08T04:19:21.761Z,28.07
2017-11-08T04:21:55.362Z,31.37
2017-11-08T04:24:29.061Z,31.90
2017-11-08T04:27:02.766Z,30.30
2017-11-08T04:29:36.370Z,32.00
2017-11-08T04:32:09.938Z,28.07
2017-11-08T04:34:43.537Z,27.57
2017-11-08T04:37:17.274Z,29.13
2017-11-08T04:39:51.597Z,27.10
2017-11-08T04:42:25.193Z,30.83
2017-11-08T04:44:58.755Z,28.93
2017-11-08T04:47:32.635Z,27.53
2017-11-08T04:50:06.313Z,33.23
2017-11-08T04:52:40.414Z,31.77
2017-11-08T04:55:13.966Z,31.73
2017-11-08T04:57:47.561Z,33.23
2017-11-08T05:00:21.422Z,32.13
2017-11-08T05:02:55.046Z,35.30
2017-11-08T05:05:28.622Z,28.27
2017-11-08T05:08:02.221Z,28.73
2017-11-08T05:10:35.930Z,27.67
2017-11-08T05:13:09.630Z,33.90
2017-11-08T05:15:43.189Z,32.57
2017-11-08T05:18:16.937Z,34.20
2017-11-08T05:20:51.255Z,33.07
2017-11-08T05:23:24.986Z,37.27
2017-11-08T05:25:58.668Z,34.40
2017-11-08T05:28:32.373Z,32.70
2017-11-08T05:31:05.946Z,30.43
2017-11-08T05:33:40.277Z,34.83
2017-11-08T05:36:14.666Z,36.77
2017-11-08T05:38:48.161Z,33.30
2017-11-08T05:41:22.419Z,34.47
2017-11-08T05:43:55.913Z,31.23
2017-11-08T05:46:29.943Z,34.07
2017-11-08T05:49:03.521Z,34.00
2017-11-08T05:51:38.046Z,33.77
2017-11-08T05:54:12.058Z,40.13
2017-11-08T05:56:45.661Z,47.20
2017-11-08T05:59:19.218Z,40.83
2017-11-08T06:01:52.868Z,36.03
2017-11-08T06:04:26.666Z,33.73
2017-11-08T06:07:01.162Z,38.03
2017-11-08T06:09:34.759Z,39.57
2017-11-08T06:12:08.490Z,37.17
2017-11-08T06:14:41.990Z,37.90
2017-11-08T06:17:15.713Z,36.93
2017-11-08T06:19:50.215Z,28.13
2017-11-08T06:22:23.918Z,41.37
2017-11-08T06:24:57.514Z,37.77
2017-11-08T06:27:31.163Z,30.40
2017-11-08T06:30:04.822Z,36.97
2017-11-08T06:32:39.350Z,31.70
2017-11-08T06:35:12.994Z,33.90
2017-11-08T06:37:46.505Z,46.23
2017-11-08T06:40:20.046Z,36.63
2017-11-08T06:42:53.547Z,42.07
2017-11-08T06:45:27.109Z,41.27
2017-11-08T06:48:00.647Z,34.27
2017-11-08T06:50:34.091Z,37.77
2017-11-08T06:53:07.606Z,40.07
2017-11-08T06:55:41.221Z,33.93
2017-11-08T06:58:14.843Z,38.77
2017-11-08T07:00:48.494Z,45.90
2017-11-08T07:03:23.989Z,41.73
2017-11-08T07:05:57.635Z,35.90
2017-11-08T07:08:31.250Z,38.70
2017-11-08T07:11:04.934Z,35.90
2017-11-08T07:13:38.494Z,40.90
2017-11-08T07:16:12.075Z,30.77
2017-11-08T07:18:45.666Z,37.10
2017-11-08T07:21:19.246Z,35.87
2017-11-08T07:23:53.605Z,36.10
2017-11-08T07:26:28.034Z,41.30
2017-11-08T07:29:01.533Z,39.80
2017-11-08T07:31:35.990Z,48.77
2017-11-08T07:34:09.758Z,40.17
2017-11-08T07:36:43.201Z,38.27
2017-11-08T07:39:16.857Z,35.10
2017-11-08T07:41:50.458Z,38.43
2017-11-08T07:44:24.024Z,39.03
2017-11-08T07:46:57.518Z,37.67
2017-11-08T07:49:31.158Z,48.47
2017-11-08T07:52:06.806Z,35.80
2017-11-08T07:54:40.613Z,44.40
2017-11-08T07:57:14.310Z,38.23
2017-11-08T07:59:49.877Z,44.60
2017-11-08T08:02:23.567Z,39.33
2017-11-08T08:04:57.022Z,41.03
2017-11-08T08:07:36.999Z,32.10
2017-11-08T08:10:10.826Z,41.80
2017-11-08T08:12:44.402Z,37.90
2017-11-08T08:15:17.985Z,40.93
2017-11-08T08:17:51.518Z,40.00
2017-11-08T08:20:25.018Z,41.90
2017-11-08T08:22:58.827Z,42.40
2017-11-08T08:25:32.425Z,42.03
2017-11-08T08:28:06.121Z,42.03
2017-11-08T08:30:40.313Z,40.77
2017-11-08T08:33:14.545Z,38.53
2017-11-08T08:35:48.061Z,37.00
2017-11-08T08:38:21.667Z,44.83
2017-11-08T08:40:56.086Z,41.03
2017-11-08T08:43:29.881Z,39.33
2017-11-08T08:46:04.174Z,43.87
2017-11-08T08:48:38.002Z,45.93
2017-11-08T08:51:11.706Z,38.93
2017-11-08T08:53:45.357Z,41.53
2017-11-08T08:56:19.118Z,48.57
2017-11-08T08:58:53.126Z,44.83
2017-11-08T09:01:26.702Z,39.70
2017-11-08T09:04:00.322Z,45.43
2017-11-08T09:06:33.884Z,41.67
2017-11-08T09:09:07.429Z,41.07
2017-11-08T09:11:40.857Z,46.23
2017-11-08T09:14:15.346Z,40.07
2017-11-08T09:16:48.946Z,42.63
2017-11-08T09:19:22.758Z,45.43
2017-11-08T09:21:56.350Z,45.43
2017-11-08T09:24:34.554Z,36.10
2017-11-08T09:27:10.006Z,44.00
2017-11-08T09:29:46.242Z,32.40
2017-11-08T09:32:19.718Z,43.73
2017-11-08T09:34:56.338Z,45.00
2017-11-08T09:37:35.834Z,36.63
2017-11-08T09:40:10.403Z,41.63
2017-11-08T09:42:50.650Z,42.37
2017-11-08T09:45:24.145Z,47.17
2017-11-08T09:47:57.842Z,43.53
2017-11-08T09:50:32.382Z,39.83
2017-11-08T09:53:06.901Z,50.77
2017-11-08T09:55:43.477Z,37.97
2017-11-08T09:58:17.173Z,46.50
2017-11-08T10:00:51.570Z,41.33
2017-11-08T10:03:25.259Z,42.30
2017-11-08T10:05:59.017Z,37.43
2017-11-08T10:08:33.541Z,42.23
2017-11-08T10:11:07.141Z,43.00
2017-11-08T10:13:40.800Z,38.70
2017-11-08T10:16:19.018Z,38.97
2017-11-08T10:18:52.835Z,36.23
2017-11-08T10:21:27.262Z,38.83
2017-11-08T10:24:00.833Z,39.67
2017-11-08T10:26:34.350Z,39.80
2017-11-08T10:29:07.962Z,41.40
2017-11-08T10:31:41.770Z,42.90
2017-11-08T10:34:15.362Z,43.20
2017-11-08T10:36:49.754Z,38.47
2017-11-08T10:39:24.007Z,38.43
2017-11-08T10:41:57.712Z,38.70
2017-11-08T10:44:31.384Z,43.90
2017-11-08T10:47:05.078Z,34.77
2017-11-08T10:52:40.716Z,41.93
2017-11-08T10:55:14.347Z,41.77
2017-11-08T10:57:47.943Z,40.30
2017-11-08T11:00:27.239Z,39.77
2017-11-08T11:03:00.751Z,53.77
2017-11-08T11:05:34.393Z,38.80
2017-11-08T11:08:07.883Z,39.40
2017-11-08T11:10:41.587Z,39.90
2017-11-08T11:13:15.182Z,40.87
2017-11-08T11:15:48.779Z,34.97
2017-11-08T11:18:22.378Z,36.97
2017-11-08T11:20:56.059Z,36.33
2017-11-08T11:26:34.540Z,31.47
2017-11-08T11:29:08.227Z,36.20
2017-11-08T11:31:41.954Z,36.40
2017-11-08T11:34:15.438Z,34.23
2017-11-08T11:36:49.140Z,39.97
2017-11-08T11:39:23.572Z,33.47
2017-11-08T11:41:58.018Z,37.07
2017-11-08T11:44:31.591Z,35.60
2017-11-08T11:47:05.304Z,31.73
2017-11-08T11:49:40.326Z,36.27
2017-11-08T11:52:13.894Z,30.20
2017-11-08T11:54:47.630Z,35.03
2017-11-08T11:57:21.239Z,33.63
2017-11-08T11:59:54.743Z,34.80
2017-11-08T12:02:28.560Z,33.10
2017-11-08T12:05:02.203Z,42.03
2017-11-08T12:07:38.711Z,36.80
2017-11-08T12:10:12.426Z,33.57
2017-11-08T12:12:46.014Z,32.60
2017-11-08T12:15:21.548Z,37.73
2017-11-08T12:17:56.359Z,34.07
2017-11-08T12:20:29.991Z,38.73
2017-11-08T12:23:03.595Z,34.23
2017-11-08T12:25:37.079Z,41.87
2017-11-08T12:28:13.768Z,35.87
2017-11-08T12:30:47.575Z,35.90
2017-11-08T12:33:24.147Z,37.40
2017-11-08T12:35:58.531Z,31.40
2017-11-08T12:38:32.200Z,33.80
2017-11-08T12:41:05.689Z,31.90
2017-11-08T12:43:45.076Z,33.57
2017-11-08T12:46:18.907Z,37.40
2017-11-08T12:48:52.507Z,34.17
2017-11-08T12:51:26.167Z,32.73
2017-11-08T12:53:59.783Z,31.50
2017-11-08T12:56:35.003Z,31.13
2017-11-08T12:59:08.865Z,34.60
2017-11-08T13:01:42.355Z,31.33
2017-11-08T13:04:16.882Z,40.20
2017-11-08T13:06:50.435Z,38.00
2017-11-08T13:09:23.930Z,33.33
2017-11-08T13:11:57.995Z,38.47
2017-11-08T13:14:31.587Z,45.00
2017-11-08T13:17:05.151Z,41.07
2017-11-08T13:19:38.778Z,38.40
2017-11-08T13:22:12.355Z,38.70
2017-11-08T13:24:45.894Z,37.77
2017-11-08T13:27:19.594Z,41.07
2017-11-08T13:29:53.187Z,38.63
2017-11-08T13:32:27.718Z,39.90
2017-11-08T13:35:01.198Z,37.60
2017-11-08T13:37:34.818Z,39.50
2017-11-08T13:40:08.322Z,37.10
2017-11-08T13:42:42.803Z,36.53
2017-11-08T13:45:16.359Z,42.47
2017-11-08T13:47:50.095Z,39.90
2017-11-08T13:50:23.619Z,40.03
2017-11-08T13:52:57.242Z,43.63
2017-11-08T13:55:30.848Z,48.20
2017-11-08T13:58:04.547Z,41.33
2017-11-08T14:00:38.874Z,39.70
2017-11-08T14:03:13.258Z,38.70
2017-11-08T14:05:47.579Z,46.37
2017-11-08T14:08:21.306Z,43.80
2017-11-08T14:10:54.910Z,42.10
2017-11-08T14:13:28.421Z,40.83
2017-11-08T14:16:02.111Z,38.60
2017-11-08T14:18:36.416Z,40.67
2017-11-08T14:21:10.030Z,42.33
2017-11-08T14:23:43.634Z,40.93
2017-11-08T14:26:19.999Z,40.30
2017-11-08T14:28:53.690Z,44.43
2017-11-08T14:31:28.187Z,41.37
2017-11-08T14:34:01.719Z,45.20
2017-11-08T14:36:36.023Z,40.27
2017-11-08T14:39:09.747Z,41.37
2017-11-08T14:41:48.942Z,39.57
2017-11-08T14:44:22.679Z,44.20
2017-11-08T14:46:56.192Z,41.00
2017-11-08T14:49:29.991Z,37.40
2017-11-08T14:52:06.659Z,35.80
2017-11-08T14:54:40.363Z,43.50
2017-11-08T14:57:14.371Z,42.53
2017-11-08T14:59:47.879Z,39.10
2017-11-08T15:02:21.463Z,47.33
2017-11-08T15:04:55.030Z,43.27
2017-11-08T15:07:29.394Z,38.67
2017-11-08T15:10:02.967Z,33.13
2017-11-08T15:12:42.544Z,40.30
2017-11-08T15:15:22.890Z,38.03
2017-11-08T15:17:56.458Z,42.10
2017-11-08T15:20:30.054Z,39.37
2017-11-08T15:23:04.432Z,35.67
2017-11-08T15:25:38.215Z,45.17
2017-11-08T15:28:12.104Z,40.90
2017-11-08T15:30:45.519Z,43.47
2017-11-08T15:33:20.044Z,39.70
2017-11-08T15:35:53.652Z,34.37
2017-11-08T15:38:27.547Z,38.33
2017-11-08T15:41:01.134Z,39.13
2017-11-08T15:43:34.755Z,33.20
2017-11-08T15:46:08.250Z,36.20
2017-11-08T15:48:41.759Z,38.37
2017-11-08T15:51:16.043Z,37.37
2017-11-08T15:53:49.766Z,44.00
2017-11-08T15:56:23.455Z,37.87
2017-11-08T15:58:57.172Z,39.23
2017-11-08T16:01:30.863Z,42.57
2017-11-08T16:04:05.407Z,39.53
2017-11-08T16:06:39.110Z,51.83
2017-11-08T16:09:12.688Z,52.60
2017-11-08T16:11:46.410Z,47.73
2017-11-08T16:14:20.811Z,46.60
2017-11-08T16:16:55.219Z,40.73
2017-11-08T16:19:29.051Z,42.73
2017-11-08T16:22:03.383Z,51.00
2017-11-08T16:24:37.179Z,44.63
2017-11-08T16:27:10.884Z,45.70
2017-11-08T16:29:44.466Z,46.33
2017-11-08T16:32:20.015Z,47.43
2017-11-08T16:34:53.647Z,41.60
2017-11-08T16:37:27.330Z,44.83
2017-11-08T16:40:01.572Z,41.77
2017-11-08T16:42:35.254Z,49.53
2017-11-08T16:45:08.707Z,41.53
2017-11-08T16:47:42.218Z,41.50
2017-11-08T16:50:15.875Z,49.40
2017-11-08T16:52:49.407Z,41.50
2017-11-08T16:55:23.070Z,40.53
2017-11-08T16:57:57.346Z,46.90
2017-11-08T17:00:30.827Z,41.30
2017-11-08T17:03:04.339Z,50.37
2017-11-08T17:05:38.560Z,48.30
2017-11-08T17:08:12.754Z,44.07
2017-11-08T17:10:46.415Z,44.50
2017-11-08T17:13:20.695Z,47.80
2017-11-08T17:15:54.219Z,41.90
2017-11-08T17:18:28.499Z,49.23
2017-11-08T17:21:02.035Z,50.50
2017-11-08T17:23:35.569Z,51.03
2017-11-08T17:26:09.015Z,50.60
2017-11-08T17:28:42.570Z,57.87
2017-11-08T17:31:16.016Z,54.63
2017-11-08T17:33:50.423Z,55.27
2017-11-08T17:36:23.946Z,59.20
2017-11-08T17:38:57.496Z,47.60
2017-11-08T17:41:31.126Z,50.93
2017-11-08T17:44:04.643Z,48.30
2017-11-08T17:46:38.287Z,47.23
2017-11-08T17:49:11.876Z,42.37
2017-11-08T17:51:45.315Z,52.70
2017-11-08T17:54:18.839Z,46.07
2017-11-08T17:56:52.395Z,46.43
2017-11-08T17:59:25.848Z,51.37
2017-11-08T18:02:00.119Z,48.07
2017-11-08T18:04:33.652Z,46.93
2017-11-08T18:07:07.163Z,50.83
2017-11-08T18:09:40.607Z,48.70
2017-11-08T18:12:15.039Z,47.73
2017-11-08T18:14:48.571Z,46.23
2017-11-08T18:17:22.127Z,49.30
2017-11-08T18:19:55.780Z,49.83
2017-11-08T18:22:30.047Z,52.37
2017-11-08T18:25:03.579Z,60.27
2017-11-08T18:27:37.979Z,51.03
2017-11-08T18:30:11.514Z,49.93
2017-11-08T18:32:45.788Z,42.63
2017-11-08T18:35:19.318Z,42.80
2017-11-08T18:37:52.822Z,42.33
2017-11-08T18:40:26.299Z,47.30
2017-11-08T18:43:00.615Z,52.23
2017-11-08T18:45:34.137Z,43.20
2017-11-08T18:48:07.643Z,51.60
2017-11-08T18:50:41.093Z,43.27
2017-11-08T18:53:14.627Z,45.77
2017-11-08T18:55:48.279Z,42.70
2017-11-08T18:58:21.830Z,55.83
2017-11-08T19:00:55.275Z,49.80
2017-11-08T19:03:28.938Z,48.03
2017-11-08T19:06:02.382Z,48.50
2017-11-08T19:08:35.895Z,51.80
2017-11-08T19:11:10.103Z,52.37
2017-11-08T19:13:44.315Z,55.50
2017-11-08T19:16:17.870Z,53.57
2017-11-08T19:18:52.152Z,52.87
2017-11-08T19:21:25.630Z,58.73
2017-11-08T19:23:59.240Z,62.60
2017-11-08T19:26:32.911Z,64.83
2017-11-08T19:29:06.575Z,58.90
2017-11-08T19:31:40.211Z,66.23
2017-11-08T19:34:13.759Z,56.90
2017-11-08T19:36:47.286Z,60.43
2017-11-08T19:39:20.815Z,59.77
2017-11-08T19:41:54.253Z,58.50
2017-11-08T19:44:27.770Z,55.10
2017-11-08T19:47:01.408Z,62.93
2017-11-08T19:49:34.922Z,54.13
2017-11-08T19:52:08.476Z,63.17
2017-11-08T19:54:42.010Z,56.90
2017-11-08T19:57:15.671Z,63.53
2017-11-08T19:59:49.120Z,68.30
2017-11-08T20:02:22.679Z,58.80
2017-11-08T20:04:56.123Z,56.30
2017-11-08T20:07:29.634Z,62.77
2017-11-08T20:10:03.846Z,67.27
2017-11-08T20:12:38.087Z,69.13
2017-11-08T20:15:11.569Z,131.77
2017-11-08T20:17:45.102Z,65.77
2017-11-08T20:20:18.747Z,62.53
2017-11-08T20:22:52.255Z,70.57
2017-11-08T20:25:26.008Z,58.30
2017-11-08T20:27:59.538Z,57.97
2017-11-08T20:30:32.982Z,58.40
2017-11-08T20:33:06.499Z,54.70
2017-11-08T20:35:39.959Z,62.50
2017-11-08T20:38:14.167Z,63.47
2017-11-08T20:40:47.699Z,54.90
2017-11-08T20:43:22.098Z,63.33
2017-11-08T20:45:55.634Z,69.47
2017-11-08T20:48:29.167Z,58.07
2017-11-08T20:51:02.632Z,60.83
2017-11-08T20:53:36.226Z,59.37
2017-11-08T20:56:09.662Z,56.53
2017-11-08T20:58:43.179Z,65.43
2017-11-08T21:01:16.824Z,57.50
2017-11-08T21:03:51.103Z,55.30
2017-11-08T21:06:24.634Z,56.37
2017-11-08T21:08:58.146Z,54.23
2017-11-08T21:11:31.586Z,60.67
2017-11-08T21:14:05.226Z,58.73
2017-11-08T21:16:38.671Z,62.77
2017-11-08T21:19:12.345Z,58.57
2017-11-08T21:21:46.625Z,54.47
2017-11-08T21:24:20.849Z,58.70
2017-11-08T21:26:55.163Z,61.37
2017-11-08T21:29:28.631Z,64.10
2017-11-08T21:32:02.191Z,76.23
2017-11-08T21:34:35.834Z,68.63
2017-11-08T21:37:09.323Z,61.33
2017-11-08T21:39:42.831Z,55.77
2017-11-08T21:42:16.298Z,53.00
2017-11-08T21:44:49.936Z,69.63
2017-11-08T21:47:23.538Z,68.00
2017-11-08T21:49:57.046Z,67.73
2017-11-08T21:52:30.631Z,67.97
2017-11-08T21:55:04.975Z,64.73
2017-11-08T21:57:39.186Z,67.20
2017-11-08T22:00:13.398Z,85.53
2017-11-08T22:02:46.936Z,67.93
2017-11-08T22:05:20.470Z,59.60
2017-11-08T22:07:53.922Z,65.70
2017-11-08T22:10:27.468Z,73.50
2017-11-08T22:13:01.134Z,61.53
2017-11-08T22:15:34.579Z,68.67
2017-11-08T22:18:08.050Z,64.77
2017-11-08T22:20:48.274Z,62.90
2017-11-08T22:23:21.786Z,64.57
2017-11-08T22:25:56.072Z,77.03
2017-11-08T22:28:30.299Z,70.10
2017-11-08T22:31:03.758Z,62.43
2017-11-08T22:33:37.216Z,63.23
2017-11-08T22:36:10.859Z,64.37
2017-11-08T22:38:44.323Z,60.63
2017-11-08T22:41:17.762Z,62.70
2017-11-08T22:43:51.979Z,66.97
2017-11-08T22:46:26.187Z,64.60
2017-11-08T22:48:59.719Z,67.73
2017-11-08T22:51:33.285Z,74.53
2017-11-08T22:54:06.751Z,66.77
2017-11-08T22:56:40.532Z,90.20
2017-11-08T22:59:14.215Z,81.63
2017-11-08T23:01:47.847Z,110.50
2017-11-08T23:04:21.430Z,116.53
2017-11-08T23:06:55.184Z,86.80
2017-11-08T23:09:28.677Z,76.63
2017-11-08T23:12:03.255Z,64.47
2017-11-08T23:14:36.958Z,81.03
2017-11-08T23:17:10.663Z,67.47
2017-11-08T23:19:44.163Z,75.37
2017-11-08T23:22:17.750Z,72.33
2017-11-08T23:24:51.321Z,73.50
2017-11-08T23:27:24.965Z,72.57
2017-11-08T23:29:58.523Z,66.70
2017-11-08T23:32:32.059Z,78.30
2017-11-08T23:35:05.763Z,77.23
2017-11-08T23:37:39.323Z,65.97
2017-11-08T23:40:13.074Z,72.03
2017-11-08T23:42:47.308Z,76.57
2017-11-08T23:45:21.190Z,64.97
2017-11-08T23:47:54.658Z,76.10
2017-11-08T23:50:28.191Z,78.17
2017-11-08T23:53:03.955Z,77.47
2017-11-08T23:55:37.747Z,65.00
2017-11-08T23:58:11.446Z,72.70
